Time;durP1;ratioP1;P1;durP2;ratioP2;P2;SDS_P1;SDS_P2;PMS_P1;PMS_P2;Temp;Humidity;BMP_temperature;BMP_pressure;BME280_temperature;BME280_humidity;BME280_pressure;Samples;Min_cycle;Max_cycle;Signal;HPM_P1;HPM_P2
2020/12/13 00:02:21;;;;;;;24.20;5.60;;;21.40;41.30;;;;;;5049458;28;20077;-62
2020/12/13 00:04:47;;;;;;;23.55;6.30;;;21.30;41.50;;;;;;5069929;28;20096;-64
2020/12/13 00:07:14;;;;;;;27.05;6.45;;;21.30;41.80;;;;;;5068283;28;20524;-64
2020/12/13 00:09:41;;;;;;;31.55;7.03;;;21.30;42.00;;;;;;5048972;28;20077;-64
2020/12/13 00:12:08;;;;;;;26.70;6.90;;;21.20;43.00;;;;;;5065587;28;20518;-64
2020/12/13 00:14:34;;;;;;;20.45;5.55;;;21.10;43.60;;;;;;5067334;28;20077;-63
2020/12/13 00:17:02;;;;;;;33.95;7.38;;;21.10;43.40;;;;;;5067431;28;20475;-64
2020/12/13 00:19:28;;;;;;;31.58;7.65;;;21.00;43.10;;;;;;5068281;28;20093;-63
2020/12/13 00:21:56;;;;;;;20.75;7.25;;;20.90;43.60;;;;;;5066576;28;20081;-63
2020/12/13 00:24:23;;;;;;;35.60;11.73;;;20.80;43.70;;;;;;5066113;28;20100;-63
2020/12/13 00:26:50;;;;;;;26.80;8.30;;;20.80;43.90;;;;;;5065382;28;20108;-62
2020/12/13 00:29:17;;;;;;;33.35;8.75;;;20.70;44.40;;;;;;5065220;28;20077;-64
2020/12/13 00:31:44;;;;;;;33.67;8.32;;;20.60;45.20;;;;;;5048482;28;20139;-65
2020/12/13 00:34:11;;;;;;;26.38;8.40;;;20.50;45.80;;;;;;5068332;28;20081;-64
2020/12/13 00:36:38;;;;;;;39.83;14.13;;;20.30;45.60;;;;;;5050398;28;20077;-63
2020/12/13 00:39:05;;;;;;;26.15;9.43;;;20.20;45.30;;;;;;5065506;28;20595;-62
2020/12/13 00:41:32;;;;;;;32.42;8.68;;;20.10;45.80;;;;;;5066002;28;20069;-62
2020/12/13 00:43:59;;;;;;;22.65;6.25;;;20.00;46.30;;;;;;5070058;28;20112;-63
2020/12/13 00:46:26;;;;;;;31.50;4.90;;;19.90;46.40;;;;;;5066676;28;20453;-63
2020/12/13 00:48:53;;;;;;;35.40;4.25;;;19.90;45.30;;;;;;5064953;28;20081;-61
2020/12/13 00:51:26;;;;;;;24.00;4.57;;;19.80;44.90;;;;;;5065680;28;20118;-62
2020/12/13 00:53:53;;;;;;;46.40;5.57;;;19.80;45.00;;;;;;5063570;28;20105;-65
2020/12/13 00:56:20;;;;;;;34.63;4.60;;;19.80;45.30;;;;;;5067808;28;20074;-64
2020/12/13 00:58:46;;;;;;;28.55;4.35;;;19.70;45.60;;;;;;5066961;28;20089;-63
2020/12/13 01:01:12;;;;;;;;;;;19.60;45.70;;;;;;5067764;28;20100;-64
2020/12/13 01:03:38;;;;;;;34.50;5.38;;;19.50;45.90;;;;;;5063876;28;19995;-64
2020/12/13 01:06:05;;;;;;;;;;;19.50;46.10;;;;;;5067104;28;20154;-60
2020/12/13 01:08:31;;;;;;;49.40;13.77;;;19.50;46.30;;;;;;5066580;28;19965;-65
2020/12/13 01:10:59;;;;;;;32.90;4.93;;;19.40;46.20;;;;;;5063278;28;20553;-61
2020/12/13 01:13:26;;;;;;;39.65;5.30;;;19.40;46.70;;;;;;5064661;28;20577;-64
2020/12/13 01:15:54;;;;;;;32.35;5.13;;;19.40;46.30;;;;;;5066117;28;20119;-63
2020/12/13 01:18:30;;;;;;;43.67;4.88;;;19.30;46.50;;;;;;5049667;28;20084;-64
2020/12/13 01:20:56;;;;;;;31.85;3.75;;;19.30;46.60;;;;;;5053755;28;20437;-63
2020/12/13 01:23:25;;;;;;;28.98;4.57;;;19.20;47.10;;;;;;5069934;28;20123;-62
2020/12/13 01:25:58;;;;;;;24.80;4.80;;;19.20;48.00;;;;;;5072150;28;20130;-64
2020/12/13 01:28:25;;;;;;;34.58;4.50;;;19.10;47.50;;;;;;5055440;28;20135;-61
2020/12/13 01:30:51;;;;;;;;;;;19.00;47.60;;;;;;5057961;28;20079;-63
2020/12/13 01:33:17;;;;;;;33.72;4.88;;;19.00;47.70;;;;;;5037151;28;19958;-63
2020/12/13 01:35:45;;;;;;;;;;;19.00;47.60;;;;;;5044141;28;20089;-63
2020/12/13 01:38:11;;;;;;;21.85;5.30;;;18.90;47.50;;;;;;5054830;28;19957;-61
2020/12/13 01:40:39;;;;;;;21.85;5.00;;;18.90;47.40;;;;;;5054389;28;20104;-61
2020/12/13 01:43:07;;;;;;;27.20;5.75;;;18.80;47.60;;;;;;5054386;28;20608;-63
2020/12/13 01:45:34;;;;;;;19.92;5.00;;;18.70;47.90;;;;;;5034999;28;20581;-62
2020/12/13 01:48:01;;;;;;;27.75;5.28;;;18.70;48.20;;;;;;5056845;28;20097;-62
2020/12/13 01:51:20;;;;;;;17.13;5.80;;;18.60;48.20;;;;;;5053910;28;20185;-62
2020/12/13 01:53:24;;;;;;;22.23;5.30;;;18.60;48.50;;;;;;5027056;28;20480;-61
2020/12/13 01:55:51;;;;;;;19.80;5.47;;;18.50;48.80;;;;;;5034692;28;21815;-60
2020/12/13 01:58:31;;;;;;;19.08;4.85;;;18.40;49.10;;;;;;5050459;28;20073;-62
2020/12/13 02:01:03;;;;;;;21.73;5.15;;;18.40;49.50;;;;;;5051221;28;21355;-61
2020/12/13 02:03:52;;;;;;;16.50;5.75;;;18.30;50.00;;;;;;5044030;28;20227;-63
2020/12/13 02:06:25;;;;;;;21.27;5.95;;;18.20;49.90;;;;;;5055133;28;20089;-62
2020/12/13 02:08:52;;;;;;;28.00;6.15;;;18.10;50.20;;;;;;5050672;28;20088;-62
2020/12/13 02:11:20;;;;;;;23.48;6.90;;;18.10;50.00;;;;;;5047914;28;20164;-63
2020/12/13 02:13:50;;;;;;;27.77;7.70;;;18.00;49.80;;;;;;5042832;28;20069;-64
2020/12/13 02:16:20;;;;;;;28.27;7.47;;;18.00;49.90;;;;;;5050516;28;20111;-62
2020/12/13 02:18:47;;;;;;;30.27;7.88;;;18.00;49.90;;;;;;5051321;28;20073;-61
2020/12/13 02:21:13;;;;;;;32.97;8.25;;;17.90;50.10;;;;;;5048163;28;20092;-61
2020/12/13 02:23:41;;;;;;;32.30;9.68;;;17.80;50.30;;;;;;5032702;28;20351;-61
2020/12/13 02:26:13;;;;;;;29.63;8.82;;;17.70;50.70;;;;;;5052614;28;20538;-62
2020/12/13 02:28:41;;;;;;;29.17;10.80;;;17.70;51.00;;;;;;5047814;28;20128;-63
2020/12/13 02:31:08;;;;;;;25.02;9.27;;;17.60;51.10;;;;;;5050290;28;20069;-62
2020/12/13 02:33:36;;;;;;;28.10;9.50;;;17.60;51.10;;;;;;5051193;28;20069;-61
2020/12/13 02:36:04;;;;;;;29.38;9.40;;;17.50;51.20;;;;;;5055606;28;20497;-63
2020/12/13 02:38:31;;;;;;;34.67;10.40;;;17.40;51.40;;;;;;5054195;28;20081;-62
2020/12/13 02:40:59;;;;;;;29.35;10.45;;;17.40;51.50;;;;;;5034065;28;21522;-63
2020/12/13 02:43:28;;;;;;;31.73;8.27;;;17.40;51.70;;;;;;5051476;28;20108;-63
2020/12/13 02:45:55;;;;;;;23.95;8.63;;;17.30;51.70;;;;;;5034124;28;20123;-62
2020/12/13 02:48:21;;;;;;;;;;;17.30;52.00;;;;;;5053430;28;20084;-62
2020/12/13 02:50:48;;;;;;;27.67;9.43;;;17.30;51.80;;;;;;5034663;28;20052;-62
2020/12/13 02:53:14;;;;;;;;;;;17.30;52.00;;;;;;5065494;28;20530;-61
2020/12/13 02:55:41;;;;;;;24.63;8.20;;;17.30;52.00;;;;;;5049659;28;19993;-61
2020/12/13 02:58:10;;;;;;;;;;;17.30;52.10;;;;;;5049394;28;20407;-60
2020/12/13 03:00:37;;;;;;;24.95;9.52;;;17.30;52.30;;;;;;5051332;28;20007;-62
2020/12/13 03:03:03;;;;;;;;;;;17.30;52.20;;;;;;5053170;28;20106;-59
2020/12/13 03:05:30;;;;;;;26.58;8.90;;;17.30;52.20;;;;;;5053319;28;19957;-62
2020/12/13 03:07:58;;;;;;;35.53;9.88;;;17.30;52.40;;;;;;5033169;28;20442;-61
2020/12/13 03:10:24;;;;;;;31.83;8.68;;;17.30;52.30;;;;;;5032649;28;20069;-60
2020/12/13 03:12:51;;;;;;;24.80;8.30;;;17.30;52.40;;;;;;5052003;28;20119;-61
2020/12/13 03:15:17;;;;;;;;;;;17.30;52.60;;;;;;5053892;28;21747;-60
2020/12/13 03:17:43;;;;;;;23.35;8.93;;;17.30;52.50;;;;;;5050414;28;20041;-61
2020/12/13 03:20:09;;;;;;;;;;;17.30;52.70;;;;;;5062331;28;20085;-61
2020/12/13 03:22:36;;;;;;;24.15;8.80;;;17.30;52.80;;;;;;5052817;28;20402;-62
2020/12/13 03:25:03;;;;;;;;;;;17.20;53.00;;;;;;5053115;28;20567;-60
2020/12/13 03:27:32;;;;;;;21.52;7.95;;;17.20;53.30;;;;;;5050088;28;19995;-59
2020/12/13 03:29:58;;;;;;;18.38;7.70;;;17.10;53.40;;;;;;5049835;28;20090;-62
2020/12/13 03:32:24;;;;;;;;;;;17.20;53.70;;;;;;5047875;28;20078;-58
2020/12/13 03:34:58;;;;;;;35.90;10.00;;;17.20;53.80;;;;;;5051582;28;19969;-59
2020/12/13 03:37:25;;;;;;;31.77;12.30;;;17.10;54.00;;;;;;5051577;28;20076;-62
2020/12/13 03:39:54;;;;;;;35.17;15.50;;;17.10;54.20;;;;;;5049305;28;20065;-61
2020/12/13 03:42:21;;;;;;;27.90;11.65;;;17.10;54.30;;;;;;5053579;28;20572;-62
2020/12/13 03:44:47;;;;;;;28.33;11.15;;;17.00;54.30;;;;;;5054066;28;20117;-62
2020/12/13 03:47:13;;;;;;;;;;;17.00;54.60;;;;;;5053466;28;20069;-62
2020/12/13 03:49:40;;;;;;;37.28;11.55;;;16.90;55.00;;;;;;5053889;28;19972;-61
2020/12/13 03:52:06;;;;;;;31.27;12.13;;;16.90;55.10;;;;;;5033637;28;20101;-61
2020/12/13 03:54:32;;;;;;;;;;;16.80;55.30;;;;;;5057599;28;20109;-60
2020/12/13 03:56:59;;;;;;;26.35;9.57;;;16.80;55.40;;;;;;5068735;28;19961;-61
2020/12/13 03:59:25;;;;;;;;;;;16.70;55.30;;;;;;5052859;28;20078;-61
2020/12/13 04:01:51;;;;;;;29.58;11.00;;;16.80;55.50;;;;;;5058404;28;19964;-61
2020/12/13 04:04:18;;;;;;;;;;;16.70;55.70;;;;;;5059795;28;20102;-62
2020/12/13 04:06:44;;;;;;;37.58;12.18;;;16.70;55.70;;;;;;5054969;28;19957;-61
2020/12/13 04:09:11;;;;;;;37.25;13.27;;;16.70;55.80;;;;;;5060304;28;20109;-62
2020/12/13 04:11:37;;;;;;;28.10;12.50;;;16.70;56.10;;;;;;5037632;28;20136;-62
2020/12/13 04:14:03;;;;;;;;;;;16.70;56.00;;;;;;5056841;28;20112;-64
2020/12/13 04:16:30;;;;;;;29.13;12.23;;;16.70;56.00;;;;;;5057385;28;20398;-60
2020/12/13 04:18:57;;;;;;;29.08;11.35;;;16.70;55.90;;;;;;5038018;28;20614;-62
2020/12/13 04:21:24;;;;;;;;;;;16.60;56.00;;;;;;5059906;28;20442;-61
2020/12/13 04:23:51;;;;;;;53.67;12.68;;;16.50;56.10;;;;;;5058269;28;20007;-63
2020/12/13 04:26:17;;;;;;;;;;;16.50;56.40;;;;;;5059607;28;20549;-64
2020/12/13 04:28:43;;;;;;;32.83;12.00;;;16.50;56.40;;;;;;5061326;28;19985;-64
2020/12/13 04:31:10;;;;;;;36.25;11.65;;;16.40;56.40;;;;;;5072746;28;20099;-64
2020/12/13 04:33:36;;;;;;;23.50;10.05;;;16.40;56.20;;;;;;5078015;28;20097;-66
2020/12/13 04:36:06;;;;;;;24.88;9.95;;;16.40;56.70;;;;;;5078385;28;20080;-63
2020/12/13 04:38:32;;;;;;;30.25;8.90;;;16.40;56.10;;;;;;5077376;28;20081;-64
2020/12/13 04:41:01;;;;;;;53.40;11.23;;;16.40;56.00;;;;;;5058701;28;20150;-63
2020/12/13 04:43:28;;;;;;;43.63;10.75;;;16.40;56.30;;;;;;5079820;28;20437;-63
2020/12/13 04:45:56;;;;;;;27.60;12.23;;;16.40;56.40;;;;;;5079522;28;20167;-64
2020/12/13 04:48:24;;;;;;;39.80;13.40;;;16.40;56.40;;;;;;5081714;28;20077;-65
2020/12/13 04:50:51;;;;;;;33.47;13.02;;;16.30;56.70;;;;;;5078082;28;20077;-65
2020/12/13 04:53:19;;;;;;;31.60;12.77;;;16.30;56.80;;;;;;5077858;28;20080;-65
2020/12/13 04:55:59;;;;;;;34.38;12.27;;;16.20;56.90;;;;;;5080139;28;20077;-64
2020/12/13 04:58:27;;;;;;;39.25;13.23;;;16.10;57.20;;;;;;5065028;28;20076;-64
2020/12/13 05:00:59;;;;;;;37.50;12.95;;;16.10;57.40;;;;;;5080973;28;20076;-65
2020/12/13 05:03:27;;;;;;;41.58;14.18;;;16.00;57.80;;;;;;5094800;28;20553;-64
2020/12/13 05:06:03;;;;;;;39.72;13.35;;;16.00;58.10;;;;;;5083431;28;20157;-63
2020/12/13 05:08:31;;;;;;;36.47;12.98;;;16.00;58.00;;;;;;5075999;28;20073;-64
2020/12/13 05:10:58;;;;;;;40.72;15.00;;;15.90;58.60;;;;;;5081612;28;20408;-64
2020/12/13 05:13:25;;;;;;;36.30;14.82;;;15.80;58.80;;;;;;5079050;28;20092;-64
2020/12/13 05:15:51;;;;;;;31.40;14.77;;;15.80;59.10;;;;;;5079235;28;20160;-65
2020/12/13 05:18:17;;;;;;;;;;;15.70;59.30;;;;;;5078218;28;20081;-65
2020/12/13 05:20:44;;;;;;;34.75;14.70;;;15.70;59.50;;;;;;5082504;28;19964;-64
2020/12/13 05:23:11;;;;;;;42.72;15.48;;;15.70;59.80;;;;;;5079403;28;20121;-65
2020/12/13 05:25:38;;;;;;;;;;;15.60;60.00;;;;;;5076055;28;20415;-65
2020/12/13 05:28:18;;;;;;;38.03;14.65;;;15.60;60.30;;;;;;5071407;28;19985;-65
2020/12/13 05:30:46;;;;;;;40.35;15.60;;;15.50;60.50;;;;;;5059709;28;20081;-64
2020/12/13 05:36:00;;;;;;;34.05;13.70;;;15.50;60.50;;;;;;5057959;28;20065;-65
2020/12/13 05:38:32;;;;;;;29.23;13.88;;;15.40;60.50;;;;;;5065805;28;20088;-65
2020/12/13 05:40:59;;;;;;;30.83;14.93;;;15.30;60.70;;;;;;5054371;28;20214;-65
2020/12/13 05:43:29;;;;;;;34.85;13.52;;;15.30;60.60;;;;;;5046005;28;20105;-65
2020/12/13 05:53:22;;;;;;;33.55;15.02;;;15.20;59.90;;;;;;5061691;28;20369;-62
2020/12/13 05:55:53;;;;;;;39.97;14.30;;;15.20;59.80;;;;;;5056867;28;20070;-64
2020/12/13 05:58:25;;;;;;;35.83;14.18;;;15.10;59.80;;;;;;5040799;28;20437;-64
2020/12/13 06:00:55;;;;;;;41.85;14.45;;;15.00;59.50;;;;;;5057589;28;20152;-65
2020/12/13 06:03:40;;;;;;;31.95;15.15;;;15.00;59.80;;;;;;5061833;28;20599;-63
2020/12/13 06:06:11;;;;;;;37.10;16.13;;;14.90;60.00;;;;;;5061089;28;20156;-64
2020/12/13 06:08:48;;;;;;;28.30;14.38;;;14.90;59.90;;;;;;5056420;28;20433;-64
2020/12/13 06:11:23;;;;;;;36.40;14.38;;;14.90;59.70;;;;;;5057025;28;20083;-64
2020/12/13 06:13:54;;;;;;;29.10;13.48;;;14.80;59.40;;;;;;5057181;28;20160;-65
2020/12/13 06:16:22;;;;;;;30.20;12.88;;;14.70;59.10;;;;;;5059404;28;20437;-63
2020/12/13 06:18:50;;;;;;;27.15;12.98;;;14.70;58.70;;;;;;5061584;28;20075;-64
2020/12/13 06:21:17;;;;;;;30.15;12.55;;;14.70;58.90;;;;;;5056294;28;20065;-63
2020/12/13 06:23:47;;;;;;;33.72;13.95;;;14.70;58.50;;;;;;5060570;28;20553;-65
2020/12/13 06:26:16;;;;;;;31.05;13.50;;;14.70;58.40;;;;;;5038528;28;20070;-65
2020/12/13 06:28:44;;;;;;;26.65;11.32;;;14.70;58.10;;;;;;5038017;28;20117;-65
2020/12/13 06:31:16;;;;;;;27.83;11.32;;;14.70;58.20;;;;;;5059645;28;20131;-66
2020/12/13 06:33:44;;;;;;;26.30;11.05;;;14.60;58.00;;;;;;5055730;28;20066;-65
2020/12/13 06:36:11;;;;;;;27.33;11.70;;;14.60;57.70;;;;;;5041295;28;20069;-64
2020/12/13 06:38:40;;;;;;;28.10;12.63;;;14.50;57.70;;;;;;5044548;28;20081;-65
2020/12/13 06:41:10;;;;;;;31.15;13.27;;;14.50;57.60;;;;;;5061948;28;20064;-65
2020/12/13 06:44:05;;;;;;;34.25;13.80;;;14.40;57.10;;;;;;5057078;28;20092;-65
2020/12/13 06:46:32;;;;;;;32.30;13.30;;;14.30;57.10;;;;;;5076865;28;20089;-64
2020/12/13 06:49:00;;;;;;;29.63;12.90;;;14.30;57.40;;;;;;5059889;28;20526;-66
2020/12/13 06:51:35;;;;;;;38.22;13.45;;;14.30;57.20;;;;;;5040869;28;20076;-65
2020/12/13 06:54:04;;;;;;;35.97;14.88;;;14.20;57.50;;;;;;5062520;28;20083;-64
2020/12/13 06:56:31;;;;;;;31.40;14.65;;;14.10;57.60;;;;;;5040831;28;20077;-65
2020/12/13 06:59:01;;;;;;;35.20;14.50;;;14.20;57.70;;;;;;5052672;28;20176;-65
2020/12/13 07:01:32;;;;;;;34.85;14.07;;;14.20;57.30;;;;;;5056648;28;20077;-66
2020/12/13 07:04:22;;;;;;;31.95;13.35;;;14.20;56.70;;;;;;5053241;28;20581;-66
2020/12/13 07:07:01;;;;;;;36.22;14.27;;;14.20;56.60;;;;;;5032857;28;20078;-66
2020/12/13 07:09:29;;;;;;;29.10;13.30;;;14.10;56.50;;;;;;5059235;28;20554;-65
2020/12/13 07:11:58;;;;;;;31.05;13.23;;;14.10;56.50;;;;;;5063071;28;20097;-65
2020/12/13 07:14:27;;;;;;;38.85;12.80;;;14.10;56.60;;;;;;5061871;28;20479;-66
2020/12/13 07:17:16;;;;;;;30.52;11.65;;;14.00;56.70;;;;;;5058850;28;20076;-65
2020/12/13 07:19:42;;;;;;;28.98;11.93;;;14.00;56.40;;;;;;5057696;28;20073;-64
2020/12/13 07:22:11;;;;;;;29.90;12.30;;;13.90;56.20;;;;;;5034174;28;20553;-64
2020/12/13 07:24:39;;;;;;;25.67;11.30;;;13.90;56.10;;;;;;5033035;28;20104;-65
2020/12/13 07:27:07;;;;;;;26.10;10.90;;;13.90;56.40;;;;;;5054607;28;20178;-64
2020/12/13 07:29:34;;;;;;;27.88;10.88;;;13.70;56.60;;;;;;5035700;28;20096;-65
2020/12/13 07:32:05;;;;;;;25.45;10.18;;;13.80;56.70;;;;;;5051018;28;20069;-65
2020/12/13 07:34:32;;;;;;;25.52;10.90;;;13.70;56.50;;;;;;5052418;28;20499;-65
2020/12/13 07:36:59;;;;;;;33.50;11.05;;;13.60;56.30;;;;;;5056494;28;20084;-63
2020/12/13 07:39:29;;;;;;;25.05;10.73;;;13.70;56.10;;;;;;5052672;28;20080;-64
2020/12/13 07:41:55;;;;;;;23.75;10.50;;;13.60;55.80;;;;;;5056311;28;20080;-62
2020/12/13 07:44:21;;;;;;;;;;;13.60;55.80;;;;;;5039810;28;20092;-65
2020/12/13 07:46:49;;;;;;;17.17;7.07;;;13.50;55.20;;;;;;5034273;28;19994;-63
2020/12/13 07:49:19;;;;;;;20.25;6.35;;;13.40;54.00;;;;;;5036059;28;20226;-66
2020/12/13 07:51:50;;;;;;;14.52;6.28;;;13.40;53.10;;;;;;5050705;28;20084;-65
2020/12/13 07:54:29;;;;;;;14.65;6.03;;;13.50;52.70;;;;;;5040854;28;20546;-65
2020/12/13 07:57:10;;;;;;;15.15;5.40;;;13.40;52.40;;;;;;5048530;28;20211;-65
2020/12/13 07:59:37;;;;;;;15.65;5.85;;;13.30;52.50;;;;;;5046336;28;20398;-66
2020/12/13 08:02:05;;;;;;;;;;;13.20;53.00;;;;;;5055714;28;20101;-66
2020/12/13 08:04:36;;;;;;;18.17;5.65;;;13.20;53.30;;;;;;5051384;28;20388;-66
2020/12/13 08:07:10;;;;;;;15.95;5.90;;;13.20;53.00;;;;;;5049903;28;20097;-64
2020/12/13 08:09:42;;;;;;;14.23;5.70;;;13.20;53.10;;;;;;5051996;28;20153;-64
2020/12/13 08:12:09;;;;;;;11.50;5.50;;;13.20;53.40;;;;;;5056009;28;20074;-64
2020/12/13 08:14:36;;;;;;;13.60;5.57;;;13.10;53.40;;;;;;5055977;28;20078;-65
2020/12/13 08:17:02;;;;;;;13.30;6.03;;;13.10;52.80;;;;;;5056806;28;20442;-65
2020/12/13 08:19:32;;;;;;;;;;;13.10;52.40;;;;;;5039591;28;20078;-64
2020/12/13 08:22:09;;;;;;;11.80;5.35;;;13.00;51.30;;;;;;5054054;28;19957;-64
2020/12/13 08:24:37;;;;;;;21.73;6.28;;;13.00;51.20;;;;;;5048351;28;20138;-63
2020/12/13 08:27:05;;;;;;;13.88;6.45;;;12.90;51.30;;;;;;5050523;28;20132;-63
2020/12/13 08:29:33;;;;;;;11.98;5.97;;;12.90;51.60;;;;;;5054161;28;20074;-63
2020/12/13 08:32:00;;;;;;;12.65;5.78;;;12.90;51.50;;;;;;5056432;28;20077;-64
2020/12/13 08:34:30;;;;;;;15.55;6.30;;;12.90;51.60;;;;;;5054826;28;20066;-67
2020/12/13 08:36:59;;;;;;;14.43;6.40;;;12.80;51.80;;;;;;5052558;28;20156;-65
2020/12/13 08:39:37;;;;;;;21.65;7.03;;;12.70;52.00;;;;;;5052518;28;20073;-64
2020/12/13 08:42:09;;;;;;;16.42;5.65;;;12.80;52.10;;;;;;5048667;28;20077;-65
2020/12/13 08:44:38;;;;;;;11.25;6.38;;;12.70;51.70;;;;;;5058625;28;20184;-64
2020/12/13 08:47:08;;;;;;;15.70;6.00;;;12.60;51.20;;;;;;5045881;28;20096;-65
2020/12/13 08:49:35;;;;;;;25.50;11.35;;;12.60;50.60;;;;;;5052624;28;20092;-65
2020/12/13 08:52:19;;;;;;;13.30;4.63;;;12.60;51.10;;;;;;5054833;28;20252;-65
2020/12/13 08:54:51;;;;;;;15.00;5.30;;;12.60;51.00;;;;;;5037812;28;20165;-65
2020/12/13 08:57:33;;;;;;;13.82;5.78;;;12.60;51.50;;;;;;5054673;28;20068;-65
2020/12/13 09:00:01;;;;;;;17.35;7.72;;;12.60;51.40;;;;;;5034536;28;20088;-64
2020/12/13 09:02:28;;;;;;;15.90;7.65;;;12.50;51.20;;;;;;5050046;28;20081;-64
2020/12/13 09:04:58;;;;;;;16.20;7.00;;;12.50;51.10;;;;;;5047297;28;20494;-65
2020/12/13 09:08:08;;;;;;;19.92;6.93;;;12.50;50.70;;;;;;5030742;28;20070;-64
2020/12/13 09:10:15;;;;;;;17.85;7.13;;;12.60;51.00;;;;;;5024442;28;20147;-66
2020/12/13 09:12:42;;;;;;;19.88;6.72;;;12.60;52.00;;;;;;5051550;28;20154;-64
2020/12/13 09:15:14;;;;;;;17.00;6.78;;;12.50;51.60;;;;;;5055806;28;20077;-66
2020/12/13 09:17:41;;;;;;;14.23;6.70;;;12.50;51.20;;;;;;5038525;28;20069;-64
2020/12/13 09:20:08;;;;;;;24.42;8.65;;;12.30;51.20;;;;;;5055682;28;20070;-64
2020/12/13 09:22:34;;;;;;;16.63;7.57;;;12.30;51.60;;;;;;5054570;28;20078;-64
2020/12/13 09:25:01;;;;;;;;;;;12.30;52.00;;;;;;5049027;28;20578;-64
2020/12/13 09:27:28;;;;;;;28.85;12.02;;;12.40;51.90;;;;;;5051501;28;19989;-63
2020/12/13 09:29:56;;;;;;;46.17;13.88;;;12.40;51.80;;;;;;5048298;28;20078;-64
2020/12/13 09:32:23;;;;;;;33.40;10.68;;;12.50;51.60;;;;;;5050274;28;20127;-64
2020/12/13 09:34:50;;;;;;;29.48;10.13;;;12.40;50.40;;;;;;5050375;28;20073;-64
2020/12/13 09:37:19;;;;;;;24.60;7.75;;;12.50;49.70;;;;;;5049809;28;20426;-63
2020/12/13 09:39:46;;;;;;;17.23;6.15;;;12.40;49.20;;;;;;5033900;28;20092;-63
2020/12/13 09:42:14;;;;;;;17.63;5.97;;;12.40;49.20;;;;;;5052139;28;20074;-65
2020/12/13 09:44:44;;;;;;;21.67;8.45;;;12.50;50.20;;;;;;5051477;28;20942;-66
2020/12/13 09:47:10;;;;;;;25.48;8.63;;;12.40;51.20;;;;;;5036080;28;20070;-65
2020/12/13 09:49:37;;;;;;;31.20;12.00;;;12.40;51.90;;;;;;5052776;28;20078;-67
2020/12/13 09:52:04;;;;;;;39.47;14.68;;;12.30;52.70;;;;;;5051792;28;20083;-63
2020/12/13 09:54:33;;;;;;;41.20;14.52;;;12.30;53.20;;;;;;5052469;28;20082;-65
2020/12/13 09:56:59;;;;;;;41.35;15.95;;;12.20;53.70;;;;;;5052749;28;20160;-66
2020/12/13 09:59:26;;;;;;;35.60;14.55;;;12.20;54.20;;;;;;5052984;28;20569;-65
2020/12/13 10:01:53;;;;;;;53.45;15.65;;;12.30;54.30;;;;;;5052661;28;20074;-65
2020/12/13 10:04:21;;;;;;;;;;;12.30;54.50;;;;;;5034661;28;20095;-66
2020/12/13 10:09:30;;;;;;;45.63;14.68;;;12.00;54.60;;;;;;5050834;28;20074;-65
2020/12/13 10:11:56;;;;;;;37.95;14.25;;;11.90;54.70;;;;;;5034584;28;20504;-66
2020/12/13 10:14:23;;;;;;;41.53;14.85;;;11.90;54.50;;;;;;5052122;28;20099;-65
2020/12/13 10:16:50;;;;;;;41.78;15.25;;;11.90;55.00;;;;;;5033247;28;20152;-66
2020/12/13 10:19:16;;;;;;;40.97;15.35;;;11.80;55.50;;;;;;5018895;28;20544;-65
2020/12/13 10:21:43;;;;;;;44.50;15.77;;;11.80;55.80;;;;;;5052423;28;20085;-65
2020/12/13 10:24:09;;;;;;;;;;;11.70;55.80;;;;;;5052171;28;20105;-65
2020/12/13 10:26:38;;;;;;;32.85;13.48;;;11.50;55.70;;;;;;5067569;28;20007;-65
2020/12/13 10:29:06;;;;;;;34.65;13.88;;;11.60;56.40;;;;;;5071482;28;20085;-64
2020/12/13 10:31:37;;;;;;;35.88;14.95;;;11.50;56.50;;;;;;5052823;28;20085;-63
2020/12/13 10:34:07;;;;;;;35.67;14.27;;;11.50;56.70;;;;;;5074900;28;20073;-65
2020/12/13 10:36:35;;;;;;;39.83;13.95;;;11.50;56.90;;;;;;5076046;28;20088;-65
2020/12/13 10:39:04;;;;;;;39.03;14.63;;;11.50;56.80;;;;;;5054479;28;20080;-65
2020/12/13 10:41:32;;;;;;;35.17;14.38;;;11.40;56.60;;;;;;5052071;28;20069;-64
2020/12/13 10:43:59;;;;;;;39.50;14.20;;;11.30;56.40;;;;;;5049745;28;20132;-65
2020/12/13 10:46:27;;;;;;;41.45;14.82;;;11.30;56.20;;;;;;5074643;28;20131;-65
2020/12/13 10:48:54;;;;;;;31.98;12.82;;;11.40;56.30;;;;;;5052302;28;20073;-65
2020/12/13 10:51:21;;;;;;;37.28;13.52;;;11.30;56.10;;;;;;5072150;28;20109;-65
2020/12/13 10:53:48;;;;;;;32.00;12.10;;;11.30;56.40;;;;;;5071287;28;20164;-65
2020/12/13 10:56:15;;;;;;;39.25;14.90;;;11.30;55.80;;;;;;5069870;28;20069;-65
2020/12/13 10:58:43;;;;;;;35.92;12.23;;;11.30;55.20;;;;;;5049729;28;20104;-65
2020/12/13 11:01:11;;;;;;;29.55;11.00;;;11.20;55.20;;;;;;5074758;28;20069;-64
2020/12/13 11:03:38;;;;;;;25.45;10.82;;;11.30;54.60;;;;;;5074620;28;20533;-65
2020/12/13 11:06:07;;;;;;;23.33;10.73;;;11.20;53.90;;;;;;5071528;28;20152;-65
2020/12/13 11:08:33;;;;;;;24.48;9.65;;;11.20;53.80;;;;;;5060451;28;20109;-65
2020/12/13 11:11:00;;;;;;;24.30;8.60;;;11.30;53.20;;;;;;5048883;28;20560;-65
2020/12/13 11:13:27;;;;;;;21.27;7.18;;;11.20;51.40;;;;;;5069505;28;20073;-65
2020/12/13 11:15:53;;;;;;;;;;;11.20;50.20;;;;;;5091417;28;20071;-65
2020/12/13 11:18:19;;;;;;;14.10;5.28;;;11.30;49.30;;;;;;5068681;28;19961;-65
2020/12/13 11:20:46;;;;;;;17.80;5.70;;;11.20;47.80;;;;;;5069598;28;20076;-65
2020/12/13 11:23:13;;;;;;;15.02;4.00;;;11.20;47.00;;;;;;5051027;28;20227;-65
2020/12/13 11:25:39;;;;;;;;;;;11.20;45.50;;;;;;5070260;28;20101;-65
2020/12/13 11:28:06;;;;;;;6.13;3.10;;;11.20;45.00;;;;;;5055245;28;19989;-65
2020/12/13 11:30:33;;;;;;;9.82;2.50;;;11.30;45.50;;;;;;5049537;28;20442;-65
2020/12/13 11:33:00;;;;;;;5.28;1.83;;;11.20;44.90;;;;;;5046716;28;20080;-65
2020/12/13 11:35:27;;;;;;;6.47;1.20;;;11.30;43.40;;;;;;5048965;28;20089;-65
2020/12/13 11:37:54;;;;;;;4.95;0.98;;;11.20;41.90;;;;;;5049467;28;20077;-65
2020/12/13 11:40:20;;;;;;;2.30;1.13;;;11.20;41.90;;;;;;5049227;28;20080;-65
2020/12/13 11:42:47;;;;;;;4.65;1.02;;;11.30;41.50;;;;;;5049163;28;20085;-65
2020/12/13 11:45:13;;;;;;;;;;;11.20;41.10;;;;;;5032102;28;20101;-65
2020/12/13 11:47:39;;;;;;;2.47;0.90;;;11.20;41.20;;;;;;5048528;28;19985;-65
2020/12/13 11:50:06;;;;;;;1.08;0.98;;;11.20;40.80;;;;;;5049756;28;20073;-65
2020/12/13 11:52:33;;;;;;;3.17;1.08;;;11.20;40.70;;;;;;5032068;28;20082;-65
2020/12/13 11:55:00;;;;;;;2.40;1.25;;;11.20;40.20;;;;;;5032400;28;20073;-65
2020/12/13 11:57:26;;;;;;;;;;;11.20;40.10;;;;;;5050662;28;20513;-65
2020/12/13 11:59:52;;;;;;;3.85;0.98;;;11.20;39.80;;;;;;5050731;28;20040;-65
2020/12/13 12:02:19;;;;;;;;;;;11.10;39.60;;;;;;5032397;28;20208;-64
2020/12/13 12:04:46;;;;;;;1.40;0.90;;;11.10;39.60;;;;;;5049974;28;20004;-65
2020/12/13 12:07:13;;;;;;;5.32;1.15;;;11.00;39.50;;;;;;5052269;28;20093;-64
2020/12/13 12:09:40;;;;;;;1.63;0.93;;;11.10;39.40;;;;;;5049731;28;20538;-64
2020/12/13 12:12:06;;;;;;;1.38;0.82;;;11.10;39.60;;;;;;5048781;28;20061;-64
2020/12/13 12:14:32;;;;;;;;;;;11.00;38.90;;;;;;5032916;28;20127;-64
2020/12/13 12:17:03;;;;;;;2.05;0.70;;;11.10;38.80;;;;;;5049607;28;20399;-65
2020/12/13 12:19:29;;;;;;;1.83;0.60;;;11.00;39.00;;;;;;5050332;28;20500;-65
2020/12/13 12:21:55;;;;;;;;;;;11.00;39.30;;;;;;5051027;28;20077;-64
2020/12/13 12:24:22;;;;;;;3.40;1.23;;;11.10;38.60;;;;;;5065385;28;19985;-64
2020/12/13 12:26:52;;;;;;;;;;;11.10;37.90;;;;;;5050230;28;20152;-65
2020/12/13 12:29:22;;;;;;;5.05;1.25;;;11.10;37.60;;;;;;5047725;28;19965;-65
2020/12/13 12:31:49;;;;;;;2.33;1.20;;;11.00;37.70;;;;;;5048815;28;20538;-64
2020/12/13 12:34:16;;;;;;;4.05;1.15;;;11.10;37.70;;;;;;5048383;28;20081;-64
2020/12/13 12:36:42;;;;;;;2.70;1.23;;;11.10;37.40;;;;;;5048803;28;20149;-64
2020/12/13 12:39:09;;;;;;;;;;;11.00;37.40;;;;;;5048863;28;20096;-65
2020/12/13 12:41:36;;;;;;;1.05;0.90;;;11.00;38.10;;;;;;5028526;28;19957;-64
2020/12/13 12:44:02;;;;;;;0.70;0.70;;;11.10;38.30;;;;;;5053258;28;20100;-65
2020/12/13 12:46:29;;;;;;;1.58;1.17;;;11.10;38.10;;;;;;5049300;28;20119;-62
2020/12/13 12:48:55;;;;;;;;;;;11.10;37.60;;;;;;5049861;28;20133;-64
2020/12/13 12:51:27;;;;;;;1.08;0.90;;;11.00;37.10;;;;;;5048407;28;19972;-65
2020/12/13 12:53:54;;;;;;;2.40;1.00;;;11.00;36.90;;;;;;5046332;28;20069;-64
2020/12/13 12:56:21;;;;;;;1.13;0.60;;;11.00;36.90;;;;;;5047877;28;20108;-64
2020/12/13 13:01:23;;;;;;;1.58;1.00;;;11.00;38.20;;;;;;5046704;28;20074;-63
2020/12/13 13:03:57;;;;;;;2.35;0.85;;;11.00;38.30;;;;;;5047670;28;20093;-65
2020/12/13 13:11:38;;;;;;;6.03;0.70;;;10.90;37.70;;;;;;5050849;28;20536;-64
2020/12/13 13:14:10;;;;;;;3.78;0.80;;;10.90;37.70;;;;;;5053968;28;20081;-65